Time;durP1;ratioP1;P1;durP2;ratioP2;P2;SDS_P1;SDS_P2;PMS_P1;PMS_P2;Temp;Humidity;BMP_temperature;BMP_pressure;BME280_temperature;BME280_humidity;BME280_pressure;Samples;Min_cycle;Max_cycle;Signal;HPM_P1;HPM_P2
2023/08/03 00:00:41;;;;;;;6.78;1.60;;;18.50;99.90;;;;;;4970612;28;20015;-77
2023/08/03 00:03:10;;;;;;;6.88;1.52;;;18.40;99.90;;;;;;4972786;28;20035;-76
2023/08/03 00:05:36;;;;;;;4.85;1.70;;;18.40;99.90;;;;;;4971937;28;20457;-77
2023/08/03 00:08:02;;;;;;;6.45;1.98;;;18.40;99.90;;;;;;4970795;28;20035;-77
2023/08/03 00:10:28;;;;;;;8.15;1.35;;;18.30;99.90;;;;;;4969171;29;20023;-77
2023/08/03 00:12:57;;;;;;;8.13;1.73;;;18.30;99.90;;;;;;4970714;28;20191;-77
2023/08/03 00:15:26;;;;;;;5.75;1.10;;;18.30;99.90;;;;;;4972939;29;20353;-78
2023/08/03 00:17:51;;;;;;;9.65;1.60;;;18.20;99.90;;;;;;4971917;29;20437;-76
2023/08/03 00:20:18;;;;;;;3.00;1.42;;;18.20;99.90;;;;;;4967169;28;20063;-78
2023/08/03 00:22:48;;;;;;;11.55;1.65;;;18.10;99.90;;;;;;4968818;28;20027;-77
2023/08/03 00:25:15;;;;;;;13.15;2.38;;;18.00;99.90;;;;;;4971222;28;20050;-77
2023/08/03 00:28:07;;;;;;;3.90;1.90;;;18.10;99.90;;;;;;4968962;28;20450;-78
2023/08/03 00:30:32;;;;;;;6.97;2.38;;;18.10;99.90;;;;;;4971491;29;20030;-77
2023/08/03 00:32:58;;;;;;;6.15;1.25;;;18.00;99.90;;;;;;4971624;28;20037;-77
2023/08/03 00:35:24;;;;;;;8.32;2.08;;;18.00;99.90;;;;;;4968885;28;20106;-77
2023/08/03 00:37:51;;;;;;;9.68;2.42;;;18.00;99.90;;;;;;4966627;28;20058;-77
2023/08/03 00:40:17;;;;;;;10.40;1.83;;;18.00;99.90;;;;;;4969439;28;20035;-78
2023/08/03 00:42:46;;;;;;;4.97;2.03;;;18.00;99.90;;;;;;4969209;28;20396;-77
2023/08/03 00:45:12;;;;;;;12.90;1.58;;;18.10;99.90;;;;;;4969495;28;20027;-76
2023/08/03 00:47:45;;;;;;;6.50;1.63;;;18.10;99.90;;;;;;4969478;28;20058;-78
2023/08/03 00:50:12;;;;;;;4.93;1.35;;;18.10;99.90;;;;;;4968190;28;20058;-77
2023/08/03 00:52:39;;;;;;;7.18;2.08;;;18.10;99.90;;;;;;4969063;28;20067;-78
2023/08/03 00:55:17;;;;;;;7.95;1.27;;;18.10;99.90;;;;;;4970047;28;20083;-77
2023/08/03 00:57:43;;;;;;;10.88;2.42;;;18.10;99.90;;;;;;4969760;28;20032;-76
2023/08/03 01:00:36;;;;;;;4.22;0.73;;;18.10;99.90;;;;;;4967855;28;20078;-78
2023/08/03 01:03:02;;;;;;;2.80;1.10;;;18.10;99.90;;;;;;4966923;29;20031;-77
2023/08/03 01:05:28;;;;;;;9.70;1.98;;;18.10;99.90;;;;;;4972864;28;20035;-78
2023/08/03 01:07:58;;;;;;;2.85;1.25;;;18.10;99.90;;;;;;4969416;29;20030;-78
2023/08/03 01:10:25;;;;;;;6.30;1.88;;;18.10;99.90;;;;;;4966859;28;20363;-77
2023/08/03 01:12:56;;;;;;;5.15;1.73;;;18.20;99.90;;;;;;4966385;28;20023;-77
2023/08/03 01:15:23;;;;;;;5.32;1.83;;;18.20;99.90;;;;;;4966150;28;20027;-77
2023/08/03 01:17:48;;;;;;;4.28;1.15;;;18.20;99.90;;;;;;4972068;28;20011;-77
2023/08/03 01:20:18;;;;;;;4.72;1.30;;;18.10;99.90;;;;;;4970693;28;20047;-78
2023/08/03 01:22:44;;;;;;;9.65;1.90;;;18.20;99.90;;;;;;4971172;28;20027;-78
2023/08/03 01:25:11;;;;;;;7.30;1.35;;;18.20;99.90;;;;;;4973168;28;20408;-78
2023/08/03 01:27:46;;;;;;;2.83;0.88;;;18.20;99.90;;;;;;4967926;28;20038;-77
2023/08/03 01:30:19;;;;;;;4.40;1.80;;;18.20;99.90;;;;;;4970673;28;20023;-77
2023/08/03 01:32:48;;;;;;;2.08;0.95;;;18.20;99.90;;;;;;4971976;28;20030;-77
2023/08/03 01:35:14;;;;;;;10.90;2.08;;;18.20;99.90;;;;;;4966937;28;20098;-77
2023/08/03 01:37:51;;;;;;;2.85;1.40;;;18.20;99.90;;;;;;4966456;28;20104;-77
2023/08/03 01:40:22;;;;;;;4.75;0.98;;;18.10;99.90;;;;;;4971731;29;20024;-77
2023/08/03 01:42:51;;;;;;;5.47;1.38;;;18.20;99.90;;;;;;4971443;29;20509;-77
2023/08/03 01:45:17;;;;;;;3.83;0.85;;;18.10;99.90;;;;;;4968600;28;20074;-77
2023/08/03 01:47:43;;;;;;;6.10;1.00;;;18.10;99.90;;;;;;4970226;28;20031;-77
2023/08/03 01:50:21;;;;;;;5.32;0.90;;;18.10;99.90;;;;;;4969980;28;20031;-78
2023/08/03 01:52:48;;;;;;;5.97;1.95;;;18.10;99.90;;;;;;4971948;28;20206;-77
2023/08/03 01:55:14;;;;;;;4.88;0.90;;;18.10;99.90;;;;;;4971086;28;20038;-77
2023/08/03 01:57:40;;;;;;;4.88;1.30;;;18.10;99.90;;;;;;4971063;28;20034;-77
2023/08/03 02:00:12;;;;;;;11.88;1.33;;;18.10;99.90;;;;;;4968707;28;20015;-77
2023/08/03 02:02:38;;;;;;;3.55;1.10;;;18.10;99.90;;;;;;4968624;28;20023;-77
2023/08/03 02:05:09;;;;;;;3.30;1.17;;;18.10;99.90;;;;;;4967733;28;20381;-77
2023/08/03 02:07:53;;;;;;;7.15;1.52;;;18.10;99.90;;;;;;4968613;28;20011;-78
2023/08/03 02:10:21;;;;;;;6.93;2.70;;;18.10;99.90;;;;;;4970354;28;20027;-78
2023/08/03 02:12:47;;;;;;;6.18;2.17;;;18.10;99.90;;;;;;4969830;28;20019;-77
2023/08/03 02:15:14;;;;;;;4.93;0.90;;;18.10;99.90;;;;;;4969599;28;20068;-77
2023/08/03 02:17:44;;;;;;;7.47;1.98;;;18.10;99.90;;;;;;4967196;28;20123;-77
2023/08/03 02:20:21;;;;;;;4.10;0.95;;;18.10;99.90;;;;;;4967742;28;20038;-77
2023/08/03 02:22:49;;;;;;;7.25;1.33;;;18.20;99.90;;;;;;4966977;28;20090;-77
2023/08/03 02:25:16;;;;;;;7.78;0.90;;;18.10;99.90;;;;;;4967569;29;20028;-77
2023/08/03 02:27:42;;;;;;;5.57;0.90;;;18.10;99.90;;;;;;4969643;28;20062;-77
2023/08/03 02:30:09;;;;;;;8.68;1.23;;;18.10;99.90;;;;;;4971953;28;20408;-77
2023/08/03 02:32:34;;;;;;;2.65;0.65;;;18.10;99.80;;;;;;4972030;28;20046;-77
2023/08/03 02:35:00;;;;;;;4.07;1.30;;;18.00;99.90;;;;;;4971228;28;20384;-78
2023/08/03 02:37:27;;;;;;;7.07;1.20;;;17.60;99.90;;;;;;4967995;28;20019;-77
2023/08/03 02:39:53;;;;;;;7.95;1.98;;;17.40;99.90;;;;;;4968384;28;20027;-77
2023/08/03 02:42:19;;;;;;;7.03;1.35;;;17.40;99.90;;;;;;4968314;28;20038;-77
2023/08/03 02:44:46;;;;;;;4.55;1.45;;;17.40;99.90;;;;;;4966387;28;20042;-78
2023/08/03 02:47:12;;;;;;;2.47;1.10;;;17.50;99.90;;;;;;4968762;28;20484;-76
2023/08/03 02:49:38;;;;;;;3.80;1.58;;;17.70;99.90;;;;;;4970842;28;20058;-77
2023/08/03 02:52:05;;;;;;;6.32;1.15;;;17.80;99.90;;;;;;4968167;28;20098;-77
2023/08/03 02:54:35;;;;;;;5.07;0.80;;;17.80;99.90;;;;;;4965891;28;20030;-77
2023/08/03 02:57:07;;;;;;;7.03;1.83;;;17.70;99.90;;;;;;4971227;28;20023;-78
2023/08/03 02:59:34;;;;;;;2.53;1.15;;;17.70;99.90;;;;;;4975315;28;20027;-77
2023/08/03 03:02:00;;;;;;;1.20;0.82;;;17.70;99.90;;;;;;4973480;28;20054;-77
2023/08/03 03:04:28;;;;;;;3.05;0.90;;;17.60;99.90;;;;;;4970409;28;20100;-76
2023/08/03 03:06:55;;;;;;;2.28;0.80;;;17.60;99.90;;;;;;4972195;28;20011;-77
2023/08/03 03:09:21;;;;;;;2.55;0.80;;;17.60;99.90;;;;;;4971577;28;20038;-77
2023/08/03 03:11:46;;;;;;;5.40;1.20;;;17.50;99.90;;;;;;4974192;28;20046;-77
2023/08/03 03:14:12;;;;;;;5.80;2.45;;;17.50;99.90;;;;;;4971930;28;20069;-78
2023/08/03 03:16:44;;;;;;;4.10;1.00;;;17.50;99.90;;;;;;4968093;28;20342;-77
2023/08/03 03:19:10;;;;;;;4.32;0.73;;;17.50;99.90;;;;;;4974396;28;20074;-76
2023/08/03 03:21:39;;;;;;;6.03;1.00;;;17.40;99.90;;;;;;4972651;28;20027;-78
2023/08/03 03:24:05;;;;;;;5.93;0.75;;;17.30;99.90;;;;;;4970941;28;20035;-77
2023/08/03 03:26:31;;;;;;;1.63;0.47;;;17.30;99.90;;;;;;4974355;28;20031;-76
2023/08/03 03:28:57;;;;;;;2.42;0.95;;;17.20;99.90;;;;;;4973448;28;20039;-78
2023/08/03 03:31:23;;;;;;;4.07;1.33;;;17.20;99.90;;;;;;4968048;28;20038;-78
2023/08/03 03:33:48;;;;;;;3.70;0.88;;;17.20;99.90;;;;;;4970819;28;20055;-77
2023/08/03 03:36:14;;;;;;;3.22;0.73;;;17.30;99.90;;;;;;4973000;28;20051;-78
2023/08/03 03:38:40;;;;;;;6.18;1.00;;;17.40;99.90;;;;;;4971668;28;20028;-77
2023/08/03 03:41:14;;;;;;;5.93;1.15;;;17.40;99.90;;;;;;4970255;28;20423;-77
2023/08/03 03:43:40;;;;;;;4.28;0.77;;;17.50;99.90;;;;;;4969632;28;20012;-77
2023/08/03 03:46:06;;;;;;;6.22;1.05;;;17.50;99.90;;;;;;4973494;28;20020;-78
2023/08/03 03:48:31;;;;;;;2.97;0.47;;;17.50;99.90;;;;;;4971914;28;20043;-78
2023/08/03 03:50:57;;;;;;;8.32;1.60;;;17.60;99.90;;;;;;4972973;28;20003;-77
2023/08/03 03:53:28;;;;;;;1.90;0.73;;;17.70;99.90;;;;;;4977148;29;20035;-78
2023/08/03 03:56:00;;;;;;;6.80;1.20;;;17.70;99.90;;;;;;4976757;28;20110;-77
2023/08/03 03:58:46;;;;;;;1.95;0.65;;;17.60;99.90;;;;;;4977326;28;20034;-78
2023/08/03 04:01:13;;;;;;;1.75;0.70;;;17.40;99.90;;;;;;4976507;28;20023;-77
2023/08/03 04:04:06;;;;;;;8.85;1.48;;;17.40;99.90;;;;;;4970192;28;20047;-81
2023/08/03 04:06:48;;;;;;;4.15;0.60;;;17.40;99.90;;;;;;4953661;28;20040;-79
2023/08/03 04:13:27;;;;;;;;;;;;;;;;;;;;;
2023/08/03 04:15:55;;;;;;;5.10;0.93;;;17.20;99.90;;;;;;4953531;28;20054;-80
2023/08/03 04:20:57;;;;;;;2.45;0.70;;;17.30;99.90;;;;;;5104132;23;20051;-77
2023/08/03 04:23:39;;;;;;;23.02;1.67;;;17.30;99.90;;;;;;4962227;28;20019;-80
2023/08/03 04:26:07;;;;;;;9.45;0.75;;;17.20;99.90;;;;;;4969888;28;20023;-81
2023/08/03 04:28:33;;;;;;;6.05;1.35;;;17.10;99.90;;;;;;4965124;28;20030;-80
2023/08/03 04:30:58;;;;;;;3.80;1.05;;;17.10;99.90;;;;;;4960265;28;20062;-78
2023/08/03 04:36:00;;;;;;;1.30;1.00;;;17.00;99.90;;;;;;5065862;23;20090;-78
2023/08/03 04:38:36;;;;;;;3.55;0.70;;;17.00;99.90;;;;;;4962890;29;20465;-79
2023/08/03 04:41:02;;;;;;;2.33;0.50;;;17.00;99.90;;;;;;4969513;28;20019;-80
2023/08/03 04:43:42;;;;;;;2.42;1.13;;;16.90;99.90;;;;;;4967063;28;20031;-80
2023/08/03 04:46:07;;;;;;;;;;;17.00;99.90;;;;;;4969653;28;20130;-80
2023/08/03 04:48:33;;;;;;;3.67;0.77;;;16.70;99.90;;;;;;4963133;29;19902;-80
2023/08/03 04:50:59;;;;;;;2.55;1.27;;;17.10;99.90;;;;;;4983445;23;20514;-77
2023/08/03 04:53:24;;;;;;;2.70;1.20;;;17.20;99.90;;;;;;4987763;28;20105;-77
2023/08/03 04:55:50;;;;;;;5.40;1.17;;;17.20;99.90;;;;;;4990600;28;20026;-78
2023/08/03 04:58:16;;;;;;;2.85;0.73;;;17.30;99.90;;;;;;4988944;28;20029;-77
2023/08/03 05:00:41;;;;;;;7.03;1.33;;;17.20;99.90;;;;;;4988214;28;20041;-78
2023/08/03 05:03:07;;;;;;;1.73;0.82;;;17.20;99.90;;;;;;4988516;28;20048;-77
2023/08/03 05:05:33;;;;;;;5.22;1.13;;;17.20;99.90;;;;;;4990910;28;20026;-78
2023/08/03 05:07:58;;;;;;;2.60;0.52;;;17.20;99.90;;;;;;4989022;28;20030;-77
2023/08/03 05:10:24;;;;;;;3.17;0.85;;;17.20;99.90;;;;;;4989673;28;20403;-77
2023/08/03 05:12:49;;;;;;;7.45;1.00;;;17.20;99.90;;;;;;4989820;28;20052;-78
2023/08/03 05:15:15;;;;;;;5.20;0.80;;;17.10;99.90;;;;;;4991538;28;20030;-77
2023/08/03 05:17:41;;;;;;;3.25;0.50;;;17.10;99.90;;;;;;4989333;28;20076;-77
2023/08/03 05:20:07;;;;;;;1.38;0.65;;;17.10;99.90;;;;;;4988408;28;20046;-77
2023/08/03 05:22:33;;;;;;;4.95;0.95;;;17.10;99.90;;;;;;4991329;28;20019;-77
2023/08/03 05:24:58;;;;;;;4.30;1.70;;;17.10;99.90;;;;;;4989235;28;20037;-78
2023/08/03 05:27:24;;;;;;;2.17;0.70;;;17.10;99.90;;;;;;4990644;28;20495;-77
2023/08/03 05:29:51;;;;;;;2.28;0.82;;;17.10;99.90;;;;;;4988350;28;20528;-77
2023/08/03 05:32:16;;;;;;;1.85;0.65;;;17.10;99.90;;;;;;4987050;28;20029;-76
2023/08/03 05:34:42;;;;;;;7.50;1.30;;;17.40;99.90;;;;;;4989930;28;20523;-77
2023/08/03 05:37:08;;;;;;;1.90;0.85;;;17.10;99.90;;;;;;4989915;28;20033;-78
2023/08/03 05:39:33;;;;;;;0.93;0.40;;;17.10;99.90;;;;;;4987855;28;20044;-77
2023/08/03 05:42:00;;;;;;;1.10;0.35;;;17.10;99.90;;;;;;4987824;28;20018;-77
2023/08/03 05:44:27;;;;;;;2.15;0.90;;;15.80;99.90;;;;;;4988231;28;20029;-76
2023/08/03 05:46:52;;;;;;;2.72;0.75;;;17.10;99.90;;;;;;4990113;28;20031;-77
2023/08/03 05:49:18;;;;;;;3.45;0.70;;;18.50;99.90;;;;;;4988350;28;20462;-77
2023/08/03 05:51:44;;;;;;;1.58;0.70;;;17.10;99.90;;;;;;4987907;28;20054;-77
2023/08/03 05:54:16;;;;;;;2.47;0.40;;;17.20;99.90;;;;;;4989054;28;20098;-78
2023/08/03 05:56:43;;;;;;;2.60;0.50;;;17.20;99.90;;;;;;4989649;28;20113;-78
2023/08/03 05:59:21;;;;;;;3.17;0.80;;;17.20;99.90;;;;;;4989094;28;20455;-77
2023/08/03 06:01:49;;;;;;;6.80;1.40;;;17.20;99.90;;;;;;4989684;28;20045;-77
2023/08/03 06:04:16;;;;;;;3.20;0.50;;;17.30;99.90;;;;;;4988356;28;20425;-78
2023/08/03 06:06:41;;;;;;;1.58;0.95;;;17.40;99.90;;;;;;4989344;28;20049;-78
2023/08/03 06:09:13;;;;;;;2.83;0.73;;;17.40;99.90;;;;;;4991791;28;20026;-76
2023/08/03 06:11:39;;;;;;;1.88;0.55;;;17.50;99.90;;;;;;4995824;28;20225;-76
2023/08/03 06:14:16;;;;;;;2.17;0.85;;;17.50;99.90;;;;;;4988081;28;20415;-77
2023/08/03 06:16:44;;;;;;;3.65;0.98;;;17.50;99.90;;;;;;4987711;28;20150;-77
2023/08/03 06:19:10;;;;;;;2.03;0.77;;;17.60;99.90;;;;;;4988156;28;20060;-77
2023/08/03 06:21:36;;;;;;;1.17;0.65;;;17.60;99.90;;;;;;4986147;28;20467;-77
2023/08/03 06:24:03;;;;;;;2.28;0.65;;;17.60;99.90;;;;;;4983498;28;20026;-77
2023/08/03 06:26:33;;;;;;;2.78;0.32;;;17.70;99.90;;;;;;4985926;28;20458;-77
2023/08/03 06:29:01;;;;;;;5.82;1.15;;;17.70;99.90;;;;;;4983600;28;20474;-77
2023/08/03 06:31:40;;;;;;;3.88;0.63;;;17.90;99.90;;;;;;4988277;28;20045;-77
2023/08/03 06:34:09;;;;;;;1.90;0.60;;;18.00;99.90;;;;;;4987630;28;20121;-77
2023/08/03 06:36:36;;;;;;;2.60;1.05;;;18.40;99.90;;;;;;4987451;28;20138;-77
2023/08/03 06:39:02;;;;;;;7.57;1.38;;;18.30;99.90;;;;;;4986918;28;20022;-77
2023/08/03 06:41:29;;;;;;;2.67;0.52;;;18.20;99.90;;;;;;4988643;28;20053;-77
2023/08/03 06:43:56;;;;;;;3.88;1.35;;;18.10;99.90;;;;;;4987007;28;20027;-77
2023/08/03 06:46:22;;;;;;;1.15;0.60;;;18.10;99.90;;;;;;4987298;28;20475;-77
2023/08/03 06:48:50;;;;;;;3.97;0.68;;;18.00;99.90;;;;;;4987622;28;20085;-77
2023/08/03 06:51:16;;;;;;;2.30;0.50;;;18.00;99.90;;;;;;4987325;28;20062;-77
2023/08/03 06:53:42;;;;;;;0.70;0.47;;;18.00;99.90;;;;;;4988153;28;20026;-77
2023/08/03 06:56:08;;;;;;;1.25;0.20;;;18.00;99.90;;;;;;4987039;28;20029;-78
2023/08/03 06:58:33;;;;;;;2.53;0.82;;;17.90;99.90;;;;;;4989209;28;20034;-78
2023/08/03 07:00:59;;;;;;;0.95;0.40;;;18.00;99.90;;;;;;4987848;28;20030;-77
2023/08/03 07:03:25;;;;;;;0.77;0.52;;;18.20;99.90;;;;;;4989504;28;20384;-77
2023/08/03 07:05:51;;;;;;;5.25;0.73;;;18.70;99.90;;;;;;4988169;28;20549;-76
2023/08/03 07:08:17;;;;;;;0.47;0.35;;;19.60;99.70;;;;;;4989309;28;20027;-77
2023/08/03 07:10:42;;;;;;;2.72;0.77;;;20.40;98.10;;;;;;4987924;28;20105;-78
2023/08/03 07:13:08;;;;;;;4.60;0.68;;;20.60;96.90;;;;;;4988877;28;20495;-77
2023/08/03 07:15:34;;;;;;;1.30;0.38;;;21.30;95.70;;;;;;4988643;28;20026;-76
2023/08/03 07:18:02;;;;;;;1.08;0.30;;;21.70;93.90;;;;;;4988933;28;20054;-77
2023/08/03 07:20:27;;;;;;;0.77;0.30;;;21.40;93.70;;;;;;4988084;28;20085;-77
2023/08/03 07:22:53;;;;;;;2.08;1.02;;;21.30;93.80;;;;;;4987852;28;20051;-77
2023/08/03 07:25:19;;;;;;;1.55;0.60;;;21.10;93.70;;;;;;4988140;28;20498;-77
2023/08/03 07:27:45;;;;;;;2.40;0.85;;;21.60;93.90;;;;;;4987988;28;20030;-77
2023/08/03 07:30:11;;;;;;;3.10;0.82;;;21.90;92.60;;;;;;4989037;28;20022;-77
2023/08/03 07:32:37;;;;;;;1.52;0.55;;;23.10;92.30;;;;;;4987711;28;20092;-77
2023/08/03 07:35:03;;;;;;;1.38;0.90;;;21.80;91.30;;;;;;4989052;28;20105;-78
2023/08/03 07:37:29;;;;;;;1.17;0.63;;;21.60;91.60;;;;;;4987951;28;20030;-76
2023/08/03 07:39:54;;;;;;;1.42;0.50;;;21.90;91.20;;;;;;4988453;28;20049;-77
2023/08/03 07:42:20;;;;;;;1.75;0.30;;;22.50;90.00;;;;;;4988365;28;20545;-77
2023/08/03 07:44:45;;;;;;;2.55;0.88;;;22.60;87.20;;;;;;4992656;28;20109;-77
2023/08/03 07:47:11;;;;;;;2.35;0.63;;;22.60;86.20;;;;;;4992294;28;20046;-77
2023/08/03 07:49:37;;;;;;;1.88;0.50;;;22.90;83.40;;;;;;4992397;28;20026;-77
2023/08/03 07:52:03;;;;;;;0.45;0.40;;;22.90;84.90;;;;;;4992169;28;20495;-77
2023/08/03 07:54:29;;;;;;;1.80;0.95;;;22.80;80.70;;;;;;4992206;28;20034;-78
2023/08/03 07:56:55;;;;;;;3.30;1.20;;;22.40;81.90;;;;;;4991503;28;20041;-75
2023/08/03 07:59:21;;;;;;;0.35;0.20;;;21.90;81.40;;;;;;4990706;28;20042;-76
2023/08/03 08:01:47;;;;;;;0.30;0.30;;;21.60;82.70;;;;;;4992297;28;20038;-78
2023/08/03 08:04:23;;;;;;;1.38;0.10;;;21.70;83.00;;;;;;4992391;28;20483;-77
2023/08/03 08:06:49;;;;;;;4.63;0.30;;;21.40;83.60;;;;;;4992297;28;20026;-77
2023/08/03 08:09:15;;;;;;;1.35;0.30;;;21.00;84.30;;;;;;4991519;28;20031;-77
2023/08/03 08:11:40;;;;;;;1.35;0.40;;;21.20;85.90;;;;;;4999342;28;20026;-77
2023/08/03 08:14:06;;;;;;;0.75;0.57;;;21.50;84.80;;;;;;4998391;28;20192;-77
2023/08/03 08:16:33;;;;;;;0.85;0.38;;;22.00;83.70;;;;;;5000247;28;20102;-77
2023/08/03 08:18:59;;;;;;;1.38;0.28;;;21.90;81.90;;;;;;4995796;28;20033;-77
2023/08/03 08:21:24;;;;;;;0.40;0.13;;;21.70;81.80;;;;;;4992748;28;20030;-78
2023/08/03 08:23:50;;;;;;;2.75;0.28;;;22.00;81.20;;;;;;4987445;28;20022;-78
2023/08/03 08:26:17;;;;;;;1.55;0.40;;;21.90;82.00;;;;;;4991084;28;20075;-78
2023/08/03 08:28:45;;;;;;;2.05;0.30;;;22.30;81.70;;;;;;4991371;28;20036;-77
2023/08/03 08:31:11;;;;;;;0.80;0.32;;;22.40;79.80;;;;;;4991332;28;20046;-78
2023/08/03 08:33:37;;;;;;;0.57;0.55;;;22.30;79.90;;;;;;4989660;28;20069;-77
2023/08/03 08:36:03;;;;;;;0.40;0.30;;;22.20;81.00;;;;;;4997780;28;20028;-78
2023/08/03 08:38:30;;;;;;;1.48;0.63;;;22.60;79.30;;;;;;4989066;28;20030;-77
2023/08/03 08:40:56;;;;;;;1.33;0.57;;;22.60;78.80;;;;;;4987859;28;20041;-78
2023/08/03 08:43:21;;;;;;;1.00;0.55;;;23.00;76.90;;;;;;4989070;28;20575;-78
2023/08/03 08:45:48;;;;;;;2.08;0.25;;;22.50;77.90;;;;;;4992325;28;20057;-78
2023/08/03 08:48:14;;;;;;;1.20;0.50;;;22.60;77.50;;;;;;4989936;28;20097;-78
2023/08/03 08:50:41;;;;;;;1.98;0.45;;;22.70;77.00;;;;;;4992834;28;20039;-78
2023/08/03 08:53:07;;;;;;;1.38;1.17;;;22.50;79.10;;;;;;4990613;28;20010;-78
2023/08/03 08:55:33;;;;;;;1.30;0.47;;;22.40;76.90;;;;;;4982659;28;20105;-77
2023/08/03 08:57:59;;;;;;;4.53;0.85;;;22.50;77.90;;;;;;4978134;28;20018;-79
2023/08/03 09:00:26;;;;;;;0.80;0.20;;;23.00;77.30;;;;;;4978405;28;20527;-78
2023/08/03 09:03:01;;;;;;;1.33;0.25;;;22.90;76.30;;;;;;4979630;28;20518;-78
2023/08/03 09:05:27;;;;;;;1.02;0.10;;;22.60;75.90;;;;;;4978985;28;20035;-77
2023/08/03 09:08:00;;;;;;;1.35;0.20;;;22.50;76.50;;;;;;4975184;28;20153;-78
2023/08/03 09:10:26;;;;;;;1.10;0.50;;;21.90;77.70;;;;;;4980273;28;20470;-78
2023/08/03 09:12:52;;;;;;;1.00;0.32;;;21.30;79.10;;;;;;4978847;28;20101;-76
2023/08/03 09:15:18;;;;;;;2.47;0.68;;;21.20;80.20;;;;;;4987000;28;20196;-77
2023/08/03 09:17:48;;;;;;;0.82;0.30;;;21.30;80.40;;;;;;4990152;28;20287;-77
2023/08/03 09:20:27;;;;;;;0.77;0.28;;;21.40;80.80;;;;;;4983263;28;20039;-76
2023/08/03 09:22:52;;;;;;;1.30;0.50;;;21.70;81.10;;;;;;4986541;28;20034;-78
2023/08/03 09:25:18;;;;;;;3.22;0.30;;;21.80;81.60;;;;;;4992719;28;20304;-78
2023/08/03 09:27:52;;;;;;;1.42;0.30;;;22.20;80.40;;;;;;4988649;28;20033;-78
2023/08/03 09:30:18;;;;;;;0.50;0.50;;;22.80;78.40;;;;;;4991215;28;20030;-78
2023/08/03 09:32:45;;;;;;;3.30;0.75;;;23.00;77.70;;;;;;4980489;28;20214;-78
2023/08/03 09:35:28;;;;;;;5.05;0.60;;;23.10;77.10;;;;;;4993053;28;20049;-79
2023/08/03 09:37:54;;;;;;;3.28;0.50;;;23.20;78.10;;;;;;4999472;28;20068;-78
2023/08/03 09:40:20;;;;;;;0.47;0.13;;;23.30;75.60;;;;;;4998430;28;20069;-78
2023/08/03 09:42:47;;;;;;;2.97;0.45;;;23.20;77.30;;;;;;4999513;28;20026;-77
2023/08/03 09:45:14;;;;;;;0.38;0.32;;;23.40;76.40;;;;;;4998599;28;20036;-78
2023/08/03 09:47:40;;;;;;;0.75;0.20;;;23.70;74.00;;;;;;4988486;28;20106;-77
2023/08/03 09:50:07;;;;;;;1.65;0.55;;;24.20;74.10;;;;;;4989244;28;20395;-78
2023/08/03 09:52:39;;;;;;;2.63;0.55;;;23.30;74.60;;;;;;4989096;28;20050;-77
2023/08/03 09:55:12;;;;;;;2.40;0.68;;;22.40;75.60;;;;;;4989639;28;20022;-77
2023/08/03 09:57:43;;;;;;;0.82;0.30;;;22.10;76.50;;;;;;4988005;28;20072;-77
2023/08/03 10:00:12;;;;;;;2.28;0.43;;;21.70;78.60;;;;;;4987731;28;20034;-77
2023/08/03 10:02:57;;;;;;;2.93;0.80;;;21.90;79.00;;;;;;4988796;28;20057;-77
2023/08/03 10:05:24;;;;;;;1.73;0.40;;;22.20;80.30;;;;;;4987018;28;20042;-77
2023/08/03 10:08:27;;;;;;;1.25;0.52;;;22.80;78.20;;;;;;4987739;28;20027;-77
2023/08/03 10:10:59;;;;;;;1.88;0.45;;;22.50;77.20;;;;;;4989796;28;20109;-77
2023/08/03 10:13:26;;;;;;;0.30;0.30;;;22.40;77.50;;;;;;4988581;28;20115;-77
2023/08/03 10:15:53;;;;;;;0.45;0.30;;;22.60;78.20;;;;;;4987855;28;20031;-77
2023/08/03 10:18:19;;;;;;;1.77;0.55;;;22.60;78.10;;;;;;4989096;28;20085;-77
2023/08/03 10:20:45;;;;;;;1.45;0.45;;;22.50;76.50;;;;;;4987686;28;20468;-77
2023/08/03 10:23:15;;;;;;;2.20;0.68;;;22.20;78.20;;;;;;4988474;28;20026;-78
2023/08/03 10:26:01;;;;;;;0.82;0.47;;;22.30;79.50;;;;;;4987333;28;20042;-78
2023/08/03 10:28:40;;;;;;;3.58;0.70;;;22.70;80.60;;;;;;4986785;28;20023;-77
2023/08/03 10:31:15;;;;;;;1.90;0.80;;;22.90;79.20;;;;;;4988383;28;20062;-78
2023/08/03 10:33:48;;;;;;;1.55;0.47;;;22.90;78.30;;;;;;4987078;28;20033;-77
2023/08/03 10:36:33;;;;;;;1.35;0.52;;;23.30;78.80;;;;;;4986855;28;20034;-77
2023/08/03 10:39:02;;;;;;;3.80;0.47;;;23.00;78.20;;;;;;4988976;28;20085;-77
2023/08/03 10:41:39;;;;;;;2.28;0.50;;;22.30;79.20;;;;;;4976023;28;20031;-77
2023/08/03 10:44:05;;;;;;;4.93;0.65;;;21.80;80.10;;;;;;4969366;28;20504;-77
2023/08/03 10:46:32;;;;;;;0.82;0.50;;;21.50;81.40;;;;;;4986456;28;20022;-78
2023/08/03 10:48:58;;;;;;;1.95;1.13;;;22.00;81.10;;;;;;4986071;28;20415;-77
2023/08/03 10:51:23;;;;;;;1.10;0.25;;;22.10;79.50;;;;;;4986358;28;20050;-77
2023/08/03 10:53:49;;;;;;;3.83;0.93;;;22.30;80.00;;;;;;4986584;28;20033;-77
2023/08/03 10:56:15;;;;;;;1.85;0.80;;;22.80;80.10;;;;;;4986680;28;20570;-78
2023/08/03 10:58:48;;;;;;;0.90;0.30;;;22.80;77.70;;;;;;4987144;28;20018;-77
2023/08/03 11:01:20;;;;;;;0.88;0.40;;;23.20;77.20;;;;;;4988266;28;20038;-77
2023/08/03 11:03:46;;;;;;;1.15;0.68;;;23.10;75.00;;;;;;4971596;28;20027;-76
2023/08/03 11:06:12;;;;;;;1.50;0.10;;;23.20;76.60;;;;;;4986848;28;20077;-77
2023/08/03 11:08:38;;;;;;;0.90;0.32;;;23.90;75.40;;;;;;4983950;28;20662;-77
2023/08/03 11:11:09;;;;;;;2.17;0.55;;;23.50;73.60;;;;;;4980795;28;20080;-77
2023/08/03 11:13:36;;;;;;;1.80;0.63;;;23.70;75.00;;;;;;4986467;28;20027;-77
2023/08/03 11:16:03;;;;;;;0.68;0.30;;;23.90;73.20;;;;;;4986856;28;20026;-78
2023/08/03 11:18:29;;;;;;;0.65;0.22;;;24.30;72.30;;;;;;4990813;28;20033;-77
2023/08/03 11:20:54;;;;;;;1.17;0.25;;;24.10;71.50;;;;;;4989070;28;20038;-78
2023/08/03 11:23:20;;;;;;;1.23;0.30;;;24.70;71.90;;;;;;4991283;28;20026;-77
2023/08/03 11:25:46;;;;;;;0.68;0.20;;;25.20;67.90;;;;;;4991616;28;20026;-77
2023/08/03 11:28:21;;;;;;;0.25;0.20;;;25.30;69.30;;;;;;4989961;28;20601;-77
2023/08/03 11:30:47;;;;;;;0.55;0.32;;;25.00;70.00;;;;;;4991756;28;20479;-77
2023/08/03 11:33:13;;;;;;;0.10;0.10;;;24.80;70.20;;;;;;4990249;28;20022;-77
2023/08/03 11:35:39;;;;;;;1.80;0.20;;;24.20;69.30;;;;;;4990390;28;20058;-77
2023/08/03 11:38:10;;;;;;;1.50;0.90;;;24.20;69.70;;;;;;4990013;28;20069;-78
2023/08/03 11:40:36;;;;;;;0.43;0.32;;;24.60;70.50;;;;;;4991571;28;20482;-77
2023/08/03 11:43:02;;;;;;;1.20;0.45;;;24.90;70.70;;;;;;4991137;28;20027;-77
2023/08/03 11:45:29;;;;;;;1.17;0.70;;;25.10;70.70;;;;;;4990017;28;20053;-77
2023/08/03 11:47:58;;;;;;;0.17;0.13;;;24.90;72.10;;;;;;4991673;28;20084;-76
2023/08/03 11:50:25;;;;;;;0.43;0.20;;;24.90;70.40;;;;;;4990099;28;20530;-76
2023/08/03 11:52:58;;;;;;;0.98;0.47;;;24.60;67.90;;;;;;4990825;28;20073;-76
2023/08/03 11:55:30;;;;;;;1.10;0.32;;;24.70;69.40;;;;;;4991427;28;20034;-78
2023/08/03 11:58:08;;;;;;;0.25;0.25;;;24.60;69.00;;;;;;4989717;28;20038;-78
2023/08/03 12:00:33;;;;;;;0.90;0.10;;;25.00;67.80;;;;;;4991092;28;20030;-77
2023/08/03 12:02:59;;;;;;;0.20;0.20;;;25.70;67.70;;;;;;4990861;28;20054;-77
2023/08/03 12:05:25;;;;;;;1.38;0.90;;;25.40;69.80;;;;;;4989579;28;20105;-78
2023/08/03 12:07:55;;;;;;;0.88;0.50;;;25.10;69.00;;;;;;4989911;28;20022;-78
2023/08/03 12:10:21;;;;;;;0.10;0.10;;;25.20;69.50;;;;;;4991152;28;20174;-78
2023/08/03 12:12:46;;;;;;;0.57;0.25;;;24.70;69.40;;;;;;4978369;28;20114;-77
2023/08/03 12:15:12;;;;;;;0.73;0.20;;;24.80;69.50;;;;;;4975572;28;20117;-78
2023/08/03 12:17:38;;;;;;;1.02;0.30;;;25.50;68.70;;;;;;4990529;28;20120;-77
2023/08/03 12:20:05;;;;;;;1.67;0.60;;;25.50;67.80;;;;;;4988731;28;20047;-77
2023/08/03 12:22:32;;;;;;;0.80;0.50;;;25.60;68.80;;;;;;4988752;28;20026;-77
2023/08/03 12:24:58;;;;;;;0.40;0.10;;;25.50;69.90;;;;;;4989560;28;20427;-77
2023/08/03 12:27:23;;;;;;;1.00;0.75;;;25.10;67.60;;;;;;4990688;28;20022;-78
2023/08/03 12:29:49;;;;;;;1.75;0.50;;;25.40;67.10;;;;;;4988865;28;20026;-77
2023/08/03 12:32:14;;;;;;;0.15;0.15;;;25.40;68.90;;;;;;4990382;28;20045;-78
2023/08/03 12:34:40;;;;;;;0.55;0.20;;;25.80;68.30;;;;;;4990588;28;20023;-77
2023/08/03 12:37:06;;;;;;;0.35;0.20;;;25.70;67.00;;;;;;4989314;28;20045;-78
2023/08/03 12:39:31;;;;;;;0.08;0.00;;;25.30;67.30;;;;;;4988777;28;20030;-77
2023/08/03 12:41:57;;;;;;;3.85;0.15;;;25.20;67.90;;;;;;4990018;28;20034;-77
2023/08/03 12:44:26;;;;;;;0.80;0.57;;;25.30;67.50;;;;;;4989101;28;20161;-77
2023/08/03 12:46:51;;;;;;;0.70;0.10;;;25.40;67.00;;;;;;4990427;28;20026;-77
2023/08/03 12:49:18;;;;;;;0.95;0.40;;;25.80;67.30;;;;;;4990698;28;20026;-78
2023/08/03 12:51:44;;;;;;;0.55;0.20;;;26.50;67.40;;;;;;4988534;28;20050;-78
2023/08/03 12:54:10;;;;;;;0.93;0.50;;;25.90;69.20;;;;;;4989667;28;20023;-78
2023/08/03 12:56:38;;;;;;;0.20;0.20;;;25.20;68.00;;;;;;4990075;28;20041;-77
2023/08/03 12:59:05;;;;;;;0.38;0.20;;;24.70;68.30;;;;;;4990021;28;20022;-77
2023/08/03 13:01:31;;;;;;;0.30;0.15;;;24.50;69.60;;;;;;4985105;28;20042;-77